Terminal Aerodrome Forecast
Issued by NWS Missoula, MT

Home | Current Version | Previous Version | Text Only | Print | Product List | Glossary On
Versions: 1 2 3 4 5 6 7 8 9 10 11 12 13 14
000
FTUS45 KMSO 022340
TAFGPI
TAF
KGPI 022340Z 0300/0324 04019G28KT P6SM OVC060
     FM030300 04018G25KT P6SM OVC060
     FM031000 04010G18KT P6SM FEW060 SCT120
     FM031600 07009KT P6SM FEW120=

USA.gov is the U.S. government's official web portal to all federal, state and local government web resources and services.